Time;durP1;ratioP1;P1;durP2;ratioP2;P2;SDS_P1;SDS_P2;PMS_P1;PMS_P2;Temp;Humidity;BMP_temperature;BMP_pressure;BME280_temperature;BME280_humidity;BME280_pressure;Samples;Min_cycle;Max_cycle;Signal;HPM_P1;HPM_P2
2022/06/11 00:01:52;;;;;;;4.93;1.50;;;19.00;82.50;;;;;;5040620;28;20474;-84
2022/06/11 00:04:25;;;;;;;2.05;1.60;;;19.00;82.80;;;;;;5031430;28;20025;-84
2022/06/11 00:06:53;;;;;;;2.00;1.60;;;18.90;83.00;;;;;;5041073;28;20037;-84
2022/06/11 00:09:21;;;;;;;2.47;1.63;;;18.90;83.20;;;;;;5045723;28;20275;-84
2022/06/11 00:11:48;;;;;;;2.67;1.60;;;18.90;83.40;;;;;;5057837;28;20115;-85
2022/06/11 00:14:14;;;;;;;3.58;1.50;;;18.80;83.60;;;;;;5022415;28;20078;-85
2022/06/11 00:16:41;;;;;;;2.20;1.40;;;18.80;83.80;;;;;;5049409;28;20024;-84
2022/06/11 00:19:07;;;;;;;2.92;1.50;;;18.80;84.10;;;;;;5042795;28;20044;-84
2022/06/11 00:21:36;;;;;;;3.13;1.53;;;18.80;85.10;;;;;;5036533;28;20033;-84
2022/06/11 00:24:02;;;;;;;2.85;1.67;;;18.90;84.60;;;;;;5046316;28;20139;-84
2022/06/11 00:26:28;;;;;;;3.33;1.70;;;18.90;84.60;;;;;;5046839;28;20036;-84
2022/06/11 00:28:54;;;;;;;3.65;1.70;;;18.80;84.60;;;;;;5057323;28;20029;-84
2022/06/11 00:31:20;;;;;;;2.90;1.70;;;18.90;84.90;;;;;;5017279;28;20260;-84
2022/06/11 00:33:46;;;;;;;2.85;2.00;;;18.90;85.00;;;;;;5047692;28;20537;-84
2022/06/11 00:36:13;;;;;;;2.67;1.80;;;18.90;85.10;;;;;;5041754;28;20028;-84
2022/06/11 00:38:40;;;;;;;2.60;1.70;;;18.90;85.20;;;;;;5032810;28;20087;-85
2022/06/11 00:41:07;;;;;;;1.92;1.48;;;19.00;85.30;;;;;;5049554;28;20151;-84
2022/06/11 00:43:37;;;;;;;2.05;1.48;;;19.00;85.30;;;;;;5049742;28;20036;-84
2022/06/11 00:46:40;;;;;;;2.63;1.55;;;19.00;85.30;;;;;;5032332;28;20075;-84
2022/06/11 00:49:31;;;;;;;2.50;1.60;;;19.00;85.30;;;;;;5044451;28;20348;-84
2022/06/11 00:52:20;;;;;;;2.92;1.60;;;18.90;85.10;;;;;;5053872;28;20107;-84
2022/06/11 00:55:14;;;;;;;2.53;1.50;;;18.90;85.20;;;;;;5042929;28;20036;-84
2022/06/11 00:57:49;;;;;;;3.63;1.70;;;18.90;85.30;;;;;;5043399;28;20119;-84
2022/06/11 01:00:23;;;;;;;2.83;1.60;;;18.90;85.30;;;;;;5031549;28;20882;-84
2022/06/11 01:02:49;;;;;;;3.07;1.60;;;18.90;85.30;;;;;;5046275;28;20477;-83
2022/06/11 01:05:23;;;;;;;2.20;1.88;;;18.90;85.20;;;;;;5033979;28;20284;-83
2022/06/11 01:08:20;;;;;;;2.35;1.52;;;18.80;85.30;;;;;;5051029;28;20032;-83
2022/06/11 01:11:04;;;;;;;2.88;1.70;;;18.80;85.60;;;;;;5035813;28;20394;-83
2022/06/11 01:13:34;;;;;;;2.17;1.50;;;18.80;85.60;;;;;;5048696;28;20417;-83
2022/06/11 01:16:02;;;;;;;2.67;1.70;;;18.70;85.60;;;;;;5037146;28;20029;-83
2022/06/11 01:18:46;;;;;;;3.03;1.63;;;18.70;85.80;;;;;;5036064;28;20090;-83
2022/06/11 01:21:23;;;;;;;2.20;1.70;;;18.70;86.00;;;;;;5051579;28;20037;-82
2022/06/11 01:24:18;;;;;;;2.03;1.50;;;18.70;86.20;;;;;;5041171;28;20280;-83
2022/06/11 01:27:03;;;;;;;2.10;1.50;;;18.70;86.40;;;;;;5032356;28;20304;-83
2022/06/11 01:29:49;;;;;;;3.03;1.57;;;18.70;86.40;;;;;;5045356;28;20029;-83
2022/06/11 01:32:25;;;;;;;2.92;1.50;;;18.70;86.60;;;;;;5026381;28;20270;-83
2022/06/11 01:35:16;;;;;;;2.95;1.70;;;18.70;86.70;;;;;;5057575;28;20118;-83
2022/06/11 01:38:06;;;;;;;2.63;1.70;;;18.70;86.90;;;;;;5038517;28;20063;-83
2022/06/11 01:40:50;;;;;;;2.67;1.65;;;18.70;87.00;;;;;;5040416;28;20115;-83
2022/06/11 01:43:31;;;;;;;2.83;1.73;;;18.80;87.10;;;;;;5055632;28;20044;-83
2022/06/11 01:45:58;;;;;;;2.35;1.70;;;18.80;87.20;;;;;;5030816;28;20068;-83
2022/06/11 01:48:27;;;;;;;2.85;1.77;;;18.80;87.30;;;;;;5046868;28;20482;-83
2022/06/11 01:51:08;;;;;;;2.63;1.63;;;18.80;87.40;;;;;;5039007;28;20219;-83
2022/06/11 01:53:38;;;;;;;2.33;2.00;;;18.80;87.60;;;;;;5039886;28;20227;-83
2022/06/11 01:56:04;;;;;;;1.80;1.50;;;18.80;87.60;;;;;;5046348;28;20037;-83
2022/06/11 01:58:41;;;;;;;3.20;1.92;;;18.90;87.80;;;;;;5023060;28;20078;-83
2022/06/11 02:01:33;;;;;;;2.17;1.50;;;18.90;87.90;;;;;;5043720;28;20033;-83
2022/06/11 02:04:07;;;;;;;2.65;1.70;;;18.90;88.10;;;;;;5030724;28;20059;-83
2022/06/11 02:06:49;;;;;;;2.92;1.90;;;19.00;88.20;;;;;;5038183;28;20720;-83
2022/06/11 02:09:30;;;;;;;2.85;1.80;;;19.00;88.20;;;;;;5044640;28;20060;-83
2022/06/11 02:12:07;;;;;;;2.97;1.80;;;19.00;88.30;;;;;;5034109;28;20040;-83
2022/06/11 02:14:44;;;;;;;2.80;1.80;;;19.00;88.40;;;;;;5038163;28;20033;-83
2022/06/11 02:17:12;;;;;;;3.45;1.90;;;19.10;88.50;;;;;;5034330;28;20036;-83
2022/06/11 02:19:59;;;;;;;2.75;1.55;;;19.10;88.50;;;;;;5036214;28;20110;-83
2022/06/11 02:22:38;;;;;;;2.22;1.80;;;19.10;88.50;;;;;;5045824;28;20025;-83
2022/06/11 02:25:32;;;;;;;4.32;1.60;;;19.20;88.50;;;;;;5042829;28;20047;-84
2022/06/11 02:28:02;;;;;;;4.60;1.67;;;19.20;88.50;;;;;;5037554;28;20041;-83
2022/06/11 02:30:30;;;;;;;2.50;1.60;;;19.30;88.60;;;;;;5052606;28;20036;-83
2022/06/11 02:32:57;;;;;;;3.28;1.60;;;19.30;88.60;;;;;;5029866;28;20063;-83
2022/06/11 02:35:25;;;;;;;2.25;1.40;;;19.30;88.70;;;;;;5052250;28;20045;-83
2022/06/11 02:37:51;;;;;;;2.47;1.52;;;19.30;88.60;;;;;;5045086;28;20289;-83
2022/06/11 02:40:22;;;;;;;1.70;1.43;;;19.40;88.60;;;;;;5055361;28;20036;-83
2022/06/11 02:42:49;;;;;;;1.58;1.20;;;19.40;88.50;;;;;;5029193;28;20272;-83
2022/06/11 02:45:16;;;;;;;3.42;1.50;;;19.40;88.60;;;;;;5056717;28;20457;-84
2022/06/11 02:47:44;;;;;;;1.95;1.30;;;19.40;88.50;;;;;;5023252;28;21597;-84
2022/06/11 02:50:16;;;;;;;1.90;1.30;;;19.40;88.40;;;;;;5049623;28;20037;-83
2022/06/11 02:52:42;;;;;;;1.63;1.30;;;19.40;88.30;;;;;;5048340;28;20309;-83
2022/06/11 02:55:09;;;;;;;3.17;1.30;;;19.50;88.40;;;;;;5055582;28;20390;-83
2022/06/11 02:57:35;;;;;;;2.83;1.20;;;19.50;88.30;;;;;;5034430;28;20047;-83
2022/06/11 03:00:02;;;;;;;1.45;1.13;;;19.50;88.50;;;;;;5041189;28;20390;-83
2022/06/11 03:02:28;;;;;;;2.88;1.40;;;19.50;88.10;;;;;;5050892;28;20599;-83
2022/06/11 03:04:54;;;;;;;1.70;1.20;;;19.50;88.10;;;;;;5016021;28;20045;-83
2022/06/11 03:07:20;;;;;;;1.65;1.20;;;19.50;88.00;;;;;;5046505;28;20033;-84
2022/06/11 03:09:46;;;;;;;1.83;1.20;;;19.50;87.90;;;;;;5050331;28;20476;-84
2022/06/11 03:12:14;;;;;;;2.35;1.10;;;19.50;87.90;;;;;;5052601;28;20039;-83
2022/06/11 03:14:41;;;;;;;2.33;1.10;;;19.50;87.80;;;;;;5030309;28;20058;-83
2022/06/11 03:17:09;;;;;;;2.00;1.00;;;19.50;87.70;;;;;;5057119;28;20067;-83
2022/06/11 03:19:35;;;;;;;1.45;1.00;;;19.60;87.80;;;;;;5026539;28;20223;-83
2022/06/11 03:22:00;;;;;;;2.80;1.30;;;19.50;87.70;;;;;;5046014;28;20029;-83
2022/06/11 03:24:27;;;;;;;2.13;1.20;;;19.60;87.70;;;;;;5042214;28;20040;-83
2022/06/11 03:26:53;;;;;;;1.60;1.00;;;19.50;87.50;;;;;;5053431;28;20039;-83
2022/06/11 03:29:21;;;;;;;1.95;1.00;;;19.50;87.50;;;;;;5033235;28;20036;-83
2022/06/11 03:31:47;;;;;;;2.03;1.23;;;19.60;87.50;;;;;;5052601;28;20228;-83
2022/06/11 03:34:13;;;;;;;2.67;1.20;;;19.50;87.40;;;;;;5028687;28;20059;-83
2022/06/11 03:36:40;;;;;;;2.05;1.17;;;19.60;87.50;;;;;;5041745;28;20025;-83
2022/06/11 03:39:06;;;;;;;1.70;0.90;;;19.60;87.50;;;;;;5036835;28;20428;-83
2022/06/11 03:41:32;;;;;;;2.45;0.95;;;19.60;87.40;;;;;;5044644;28;20037;-83
2022/06/11 03:43:58;;;;;;;1.93;1.03;;;19.50;87.30;;;;;;5028004;28;20406;-83
2022/06/11 03:46:23;;;;;;;1.50;0.93;;;19.60;87.40;;;;;;5042226;28;20028;-83
2022/06/11 03:48:50;;;;;;;1.98;1.00;;;19.60;87.30;;;;;;5052098;28;21072;-83
2022/06/11 03:51:16;;;;;;;3.03;1.10;;;19.60;87.20;;;;;;5028482;28;20037;-82
2022/06/11 03:53:43;;;;;;;2.47;0.90;;;19.60;87.70;;;;;;5033849;28;20021;-83
2022/06/11 03:56:10;;;;;;;2.72;1.20;;;19.50;87.20;;;;;;5047884;28;20021;-83
2022/06/11 03:58:37;;;;;;;2.50;1.00;;;19.60;87.10;;;;;;5044817;28;20031;-83
2022/06/11 04:01:16;;;;;;;1.67;1.00;;;19.50;87.20;;;;;;5034911;28;20059;-83
2022/06/11 04:03:54;;;;;;;2.40;0.83;;;19.60;87.30;;;;;;5039634;28;20338;-82
2022/06/11 04:06:27;;;;;;;1.90;0.90;;;19.60;86.80;;;;;;5023658;28;20079;-83
2022/06/11 04:08:53;;;;;;;3.25;1.10;;;19.60;86.70;;;;;;5042958;28;20606;-83
2022/06/11 04:11:20;;;;;;;3.30;1.00;;;19.60;87.30;;;;;;5040759;28;20047;-81
2022/06/11 04:13:46;;;;;;;2.72;1.00;;;19.60;87.20;;;;;;5052823;28;20327;-83
2022/06/11 04:16:21;;;;;;;2.27;1.00;;;19.60;87.20;;;;;;5036513;28;20279;-83
2022/06/11 04:18:48;;;;;;;2.78;1.00;;;19.60;86.50;;;;;;5042291;28;20109;-82
2022/06/11 04:21:15;;;;;;;2.35;0.90;;;19.60;87.20;;;;;;5029477;28;20038;-82
2022/06/11 04:23:44;;;;;;;1.95;1.13;;;19.60;87.20;;;;;;5031077;28;20037;-83
2022/06/11 04:26:13;;;;;;;1.65;0.90;;;19.60;87.00;;;;;;5053042;28;20033;-82
2022/06/11 04:28:40;;;;;;;1.47;0.90;;;19.60;86.90;;;;;;5049731;28;20232;-82
2022/06/11 04:31:08;;;;;;;1.65;0.90;;;19.70;87.20;;;;;;5045158;28;20080;-83
2022/06/11 04:33:34;;;;;;;2.85;1.00;;;19.70;87.00;;;;;;5027353;28;20454;-82
2022/06/11 04:36:00;;;;;;;2.45;0.98;;;19.70;87.20;;;;;;5055192;28;20064;-83
2022/06/11 04:38:27;;;;;;;1.63;0.90;;;19.70;87.90;;;;;;5031141;28;20321;-82
2022/06/11 04:40:53;;;;;;;3.20;0.90;;;19.70;87.20;;;;;;5040787;28;20498;-83
2022/06/11 04:43:19;;;;;;;1.65;1.05;;;19.80;87.20;;;;;;5059046;28;20439;-82
2022/06/11 04:45:45;;;;;;;1.40;0.88;;;19.80;87.20;;;;;;5039295;28;20266;-82
2022/06/11 04:48:11;;;;;;;2.00;0.90;;;19.80;87.20;;;;;;5042517;28;20024;-82
2022/06/11 04:50:37;;;;;;;1.97;0.80;;;19.80;87.10;;;;;;5052203;28;20141;-82
2022/06/11 04:53:03;;;;;;;2.47;0.90;;;19.90;86.90;;;;;;5035865;28;20044;-82
2022/06/11 04:55:29;;;;;;;3.05;1.00;;;19.90;86.80;;;;;;5035239;28;20063;-83
2022/06/11 04:57:55;;;;;;;1.63;1.00;;;19.90;86.80;;;;;;5046715;28;20391;-83
2022/06/11 05:00:25;;;;;;;3.53;1.00;;;19.90;86.80;;;;;;5041274;28;20126;-82
2022/06/11 05:02:51;;;;;;;1.52;0.95;;;19.90;86.60;;;;;;5030137;28;20060;-83
2022/06/11 05:05:17;;;;;;;1.40;0.90;;;19.90;86.80;;;;;;5037396;28;20547;-83
2022/06/11 05:07:44;;;;;;;1.52;0.90;;;19.90;86.60;;;;;;5031545;28;20067;-81
2022/06/11 05:10:13;;;;;;;2.53;1.00;;;19.90;86.40;;;;;;5032480;28;20040;-82
2022/06/11 05:12:39;;;;;;;2.92;1.10;;;19.90;86.20;;;;;;5037550;28;20585;-83
2022/06/11 05:15:05;;;;;;;3.53;0.90;;;19.90;86.20;;;;;;5041197;28;20063;-82
2022/06/11 05:17:30;;;;;;;2.75;0.90;;;19.90;86.30;;;;;;5034522;28;20398;-83
2022/06/11 05:19:56;;;;;;;2.23;0.97;;;19.90;86.40;;;;;;5038002;28;20044;-82
2022/06/11 05:22:23;;;;;;;2.90;1.05;;;19.90;86.20;;;;;;5028472;28;20064;-80
2022/06/11 05:24:49;;;;;;;3.83;0.90;;;19.90;86.00;;;;;;5009781;28;20364;-82
2022/06/11 05:27:19;;;;;;;3.37;1.10;;;19.90;85.60;;;;;;5049814;28;20291;-82
2022/06/11 05:30:01;;;;;;;2.08;1.00;;;19.90;84.70;;;;;;5048818;28;21295;-81
2022/06/11 05:32:30;;;;;;;2.70;0.90;;;19.90;83.20;;;;;;5039685;28;20044;-82
2022/06/11 05:35:00;;;;;;;6.17;0.97;;;19.90;85.10;;;;;;5034432;28;20039;-82
2022/06/11 05:37:27;;;;;;;2.90;0.90;;;19.90;85.20;;;;;;5023076;28;20036;-80
2022/06/11 05:39:53;;;;;;;3.38;1.10;;;19.90;85.30;;;;;;5034498;28;20097;-82
2022/06/11 05:42:21;;;;;;;3.20;0.85;;;19.90;85.30;;;;;;5058864;28;20556;-81
2022/06/11 05:44:47;;;;;;;2.47;0.80;;;20.00;85.00;;;;;;5043363;28;20047;-82
2022/06/11 05:47:16;;;;;;;2.83;0.90;;;20.00;85.20;;;;;;5034433;28;20033;-82
2022/06/11 05:49:46;;;;;;;2.63;0.80;;;20.00;84.90;;;;;;5038979;28;20090;-82
2022/06/11 05:52:17;;;;;;;1.92;0.80;;;20.10;84.80;;;;;;5059048;28;20024;-83
2022/06/11 05:54:43;;;;;;;3.97;1.20;;;20.20;84.80;;;;;;5025544;28;20041;-81
2022/06/11 05:57:13;;;;;;;3.78;1.00;;;20.20;85.40;;;;;;5048174;28;20608;-82
2022/06/11 05:59:44;;;;;;;3.78;1.30;;;20.20;84.30;;;;;;5039296;28;20040;-81
2022/06/11 06:02:13;;;;;;;5.72;1.25;;;20.30;83.60;;;;;;5049708;28;20021;-81
2022/06/11 06:04:39;;;;;;;3.10;0.88;;;20.10;83.00;;;;;;5034308;28;20557;-81
2022/06/11 06:07:05;;;;;;;4.50;1.10;;;20.10;83.00;;;;;;5019550;28;20094;-81
2022/06/11 06:09:31;;;;;;;4.10;1.10;;;20.00;83.60;;;;;;5025311;28;20056;-81
2022/06/11 06:11:57;;;;;;;2.17;0.95;;;19.90;82.90;;;;;;5045273;28;20367;-81
2022/06/11 06:14:23;;;;;;;3.40;0.95;;;19.70;83.10;;;;;;5031514;28;20029;-81
2022/06/11 06:16:49;;;;;;;3.50;1.00;;;19.70;83.70;;;;;;5043789;28;20071;-81
2022/06/11 06:19:14;;;;;;;2.78;1.05;;;19.60;84.40;;;;;;5037986;28;20588;-81
2022/06/11 06:21:40;;;;;;;4.10;1.00;;;19.60;84.60;;;;;;5033266;28;20060;-81
2022/06/11 06:24:06;;;;;;;4.15;1.00;;;19.60;84.90;;;;;;5027368;28;20024;-81
2022/06/11 06:26:33;;;;;;;3.65;0.90;;;19.60;85.20;;;;;;5038203;28;20028;-81
2022/06/11 06:28:59;;;;;;;3.77;0.90;;;19.60;85.40;;;;;;5044394;28;20171;-81
2022/06/11 06:31:25;;;;;;;3.83;1.00;;;19.60;85.80;;;;;;5046094;28;20035;-82
2022/06/11 06:33:51;;;;;;;2.70;0.98;;;19.70;86.10;;;;;;5029515;28;20103;-83
2022/06/11 06:36:19;;;;;;;4.90;1.30;;;19.80;86.00;;;;;;5046434;28;20028;-82
2022/06/11 06:38:45;;;;;;;3.40;1.02;;;19.80;85.60;;;;;;5029417;28;20211;-82
2022/06/11 06:41:13;;;;;;;3.30;1.10;;;19.80;85.30;;;;;;5022434;28;20374;-82
2022/06/11 06:43:39;;;;;;;4.65;1.25;;;19.90;85.10;;;;;;5032279;28;20047;-82
2022/06/11 06:46:05;;;;;;;5.57;1.10;;;19.90;85.00;;;;;;5048169;28;20029;-82
2022/06/11 06:48:31;;;;;;;4.70;1.10;;;19.90;85.00;;;;;;5043394;28;20028;-82
2022/06/11 06:50:59;;;;;;;4.00;1.23;;;19.90;84.80;;;;;;5036100;28;20135;-82
2022/06/11 06:53:26;;;;;;;4.30;1.13;;;19.90;84.80;;;;;;5034576;28;20040;-82
2022/06/11 06:55:52;;;;;;;3.55;1.02;;;19.90;85.10;;;;;;5022737;28;20037;-82
2022/06/11 06:58:18;;;;;;;3.72;1.20;;;19.90;85.10;;;;;;5048769;28;20044;-82
2022/06/11 07:00:46;;;;;;;4.50;1.00;;;19.90;85.00;;;;;;5036717;28;20450;-81
2022/06/11 07:03:12;;;;;;;5.03;1.30;;;19.90;85.00;;;;;;5051443;28;20036;-82
2022/06/11 07:05:39;;;;;;;3.95;0.90;;;20.00;85.20;;;;;;5036587;28;20116;-82
2022/06/11 07:08:06;;;;;;;3.75;1.10;;;20.00;85.70;;;;;;5022695;28;20115;-82
2022/06/11 07:10:33;;;;;;;4.95;1.05;;;20.10;86.60;;;;;;5009569;28;20328;-82
2022/06/11 07:12:59;;;;;;;5.30;1.20;;;20.20;86.70;;;;;;5038233;28;20048;-82
2022/06/11 07:15:26;;;;;;;3.78;1.13;;;20.40;86.70;;;;;;5030751;28;20029;-82
2022/06/11 07:18:07;;;;;;;4.82;1.10;;;20.50;86.50;;;;;;5044868;28;20033;-81
2022/06/11 07:20:36;;;;;;;5.20;1.10;;;20.60;84.20;;;;;;5036337;28;20051;-83
2022/06/11 07:23:10;;;;;;;3.30;0.90;;;20.70;86.00;;;;;;5053277;28;20041;-82
2022/06/11 07:25:39;;;;;;;4.93;1.10;;;20.90;85.20;;;;;;5010676;28;20375;-81
2022/06/11 07:28:09;;;;;;;6.50;1.10;;;20.90;84.90;;;;;;5055187;28;20405;-83
2022/06/11 07:30:39;;;;;;;5.07;1.05;;;21.00;83.90;;;;;;5027841;28;20075;-81
2022/06/11 07:33:10;;;;;;;5.43;1.15;;;21.00;83.70;;;;;;5061076;28;20515;-82
2022/06/11 07:35:37;;;;;;;5.68;1.30;;;21.00;83.90;;;;;;5053021;28;20254;-83
2022/06/11 07:38:10;;;;;;;4.43;0.90;;;21.10;84.90;;;;;;5048980;28;20025;-82
2022/06/11 07:40:35;;;;;;;3.72;1.10;;;21.20;84.00;;;;;;5010242;28;20452;-81
2022/06/11 07:43:01;;;;;;;6.13;1.20;;;21.30;85.90;;;;;;5032074;28;20033;-82
2022/06/11 07:45:27;;;;;;;4.30;1.10;;;21.40;86.00;;;;;;5026183;28;20124;-82
2022/06/11 07:47:55;;;;;;;3.53;1.10;;;21.50;85.90;;;;;;5037871;28;20044;-82
2022/06/11 07:50:28;;;;;;;5.47;1.00;;;21.70;86.30;;;;;;5027053;28;20416;-82
2022/06/11 07:52:54;;;;;;;5.40;1.10;;;21.80;83.70;;;;;;5049314;28;20072;-81
2022/06/11 07:55:20;;;;;;;3.90;1.10;;;21.80;84.00;;;;;;5031030;28;20130;-81
2022/06/11 07:57:47;;;;;;;3.35;1.20;;;21.80;84.10;;;;;;5023520;28;20056;-82
2022/06/11 08:00:17;;;;;;;4.97;1.20;;;21.90;84.60;;;;;;5033139;28;20217;-81
2022/06/11 08:02:42;;;;;;;4.53;1.13;;;22.00;83.80;;;;;;5036498;28;20033;-82
2022/06/11 08:05:08;;;;;;;3.97;1.20;;;22.10;84.00;;;;;;5029206;28;20603;-81
2022/06/11 08:07:34;;;;;;;5.88;1.17;;;22.10;84.60;;;;;;5028584;28;20033;-81
2022/06/11 08:09:59;;;;;;;3.47;1.10;;;22.30;86.20;;;;;;5043099;28;20068;-83
2022/06/11 08:12:26;;;;;;;4.80;1.50;;;22.50;86.30;;;;;;5006902;28;20622;-82
2022/06/11 08:14:56;;;;;;;3.90;1.13;;;22.60;85.40;;;;;;5039286;28;20033;-81
2022/06/11 08:17:30;;;;;;;3.58;1.05;;;22.90;86.00;;;;;;5036727;28;20032;-83
2022/06/11 08:19:56;;;;;;;5.78;1.30;;;23.10;83.10;;;;;;5037457;28;21192;-83
2022/06/11 08:22:22;;;;;;;5.07;1.38;;;23.40;85.10;;;;;;5035161;28;20195;-83
2022/06/11 08:24:48;;;;;;;4.17;1.10;;;23.50;84.60;;;;;;5038974;28;20043;-83
2022/06/11 08:27:14;;;;;;;3.97;1.20;;;23.70;84.50;;;;;;5040421;28;20036;-81
2022/06/11 08:29:40;;;;;;;4.78;1.02;;;23.80;85.50;;;;;;5023261;28;20464;-82
2022/06/11 08:32:07;;;;;;;4.53;1.00;;;24.20;87.70;;;;;;5035212;28;20239;-82
2022/06/11 08:34:41;;;;;;;4.40;1.17;;;24.70;88.90;;;;;;5037961;28;20032;-82
2022/06/11 08:37:08;;;;;;;5.00;1.13;;;25.20;85.40;;;;;;5044513;28;20135;-81
2022/06/11 08:39:35;;;;;;;4.38;1.20;;;25.70;87.70;;;;;;5040578;28;20022;-80
2022/06/11 08:42:03;;;;;;;3.78;1.17;;;26.10;85.00;;;;;;5033038;28;20049;-80
2022/06/11 08:44:33;;;;;;;5.73;1.20;;;26.30;83.10;;;;;;5026004;28;20045;-80
2022/06/11 08:47:02;;;;;;;4.68;1.20;;;26.50;80.30;;;;;;5039401;28;20103;-82
2022/06/11 08:49:44;;;;;;;3.50;1.10;;;26.50;78.30;;;;;;5055679;28;20459;-82
2022/06/11 08:52:13;;;;;;;4.68;1.00;;;26.50;77.10;;;;;;5036192;28;20083;-81
2022/06/11 08:54:45;;;;;;;3.97;1.00;;;26.50;76.60;;;;;;5039476;28;20524;-80
2022/06/11 08:57:35;;;;;;;2.87;1.00;;;26.50;76.20;;;;;;5038729;28;20033;-81
2022/06/11 09:00:11;;;;;;;3.08;0.90;;;26.60;75.00;;;;;;5019568;28;20108;-79
2022/06/11 09:03:18;;;;;;;3.45;1.00;;;26.70;76.60;;;;;;5035971;28;20021;-83
2022/06/11 09:06:16;;;;;;;3.95;1.20;;;27.10;76.10;;;;;;5042245;28;20063;-79
2022/06/11 09:09:02;;;;;;;3.67;1.30;;;27.50;78.50;;;;;;5034943;28;20028;-81
2022/06/11 09:11:34;;;;;;;4.07;1.07;;;28.10;77.20;;;;;;5042984;28;20363;-81
2022/06/11 09:14:16;;;;;;;4.03;1.20;;;28.50;82.70;;;;;;5035766;28;20032;-80
2022/06/11 09:16:55;;;;;;;4.35;1.27;;;28.90;78.40;;;;;;5017928;28;20024;-79
2022/06/11 09:19:24;;;;;;;2.83;1.17;;;29.30;77.70;;;;;;5041104;28;20049;-83
2022/06/11 09:22:07;;;;;;;4.55;1.60;;;29.70;80.90;;;;;;5030383;28;20097;-80
2022/06/11 09:24:45;;;;;;;4.47;1.40;;;30.00;73.80;;;;;;5019716;28;20060;-80
2022/06/11 09:27:13;;;;;;;4.13;1.40;;;30.20;79.50;;;;;;5043144;28;20044;-80
2022/06/11 09:29:51;;;;;;;3.60;1.58;;;30.50;78.60;;;;;;5039402;28;20386;-80
2022/06/11 09:32:22;;;;;;;3.45;1.30;;;30.80;74.90;;;;;;5014376;28;20052;-80
2022/06/11 09:34:54;;;;;;;5.45;1.58;;;30.90;71.80;;;;;;5032578;28;21769;-78
2022/06/11 09:37:55;;;;;;;3.60;1.10;;;31.00;74.40;;;;;;5024060;28;20583;-80
2022/06/11 09:40:50;;;;;;;3.03;1.20;;;31.20;73.10;;;;;;5035731;28;20564;-78
2022/06/11 09:43:34;;;;;;;4.38;1.60;;;31.40;68.50;;;;;;5038264;28;20508;-78
2022/06/11 09:46:02;;;;;;;2.70;1.40;;;31.60;72.50;;;;;;5036353;28;20051;-82
2022/06/11 09:48:43;;;;;;;3.22;1.30;;;31.70;72.30;;;;;;5025801;28;20555;-82
2022/06/11 09:51:32;;;;;;;3.40;1.30;;;31.90;68.30;;;;;;5047194;28;20040;-82
2022/06/11 09:54:14;;;;;;;2.58;1.13;;;32.10;69.00;;;;;;5039134;28;20253;-83
2022/06/11 09:56:54;;;;;;;2.88;1.30;;;32.20;67.80;;;;;;5053772;28;20289;-81
2022/06/11 09:59:31;;;;;;;3.42;1.00;;;32.20;67.70;;;;;;5039888;28;20040;-82
2022/06/11 10:02:19;;;;;;;3.70;1.15;;;32.20;64.90;;;;;;5038350;28;20589;-82
2022/06/11 10:04:47;;;;;;;2.13;1.20;;;32.20;66.90;;;;;;5046514;28;20032;-83
2022/06/11 10:07:39;;;;;;;3.70;1.23;;;32.20;70.40;;;;;;5048453;28;20040;-83
2022/06/11 10:10:18;;;;;;;2.65;1.20;;;32.50;68.30;;;;;;5040952;28;20056;-84
2022/06/11 10:12:55;;;;;;;2.35;1.20;;;32.70;66.60;;;;;;5047054;28;20712;-84
2022/06/11 10:15:38;;;;;;;3.92;1.45;;;32.90;63.40;;;;;;5036406;28;20036;-82
2022/06/11 10:18:32;;;;;;;3.27;1.50;;;32.90;66.20;;;;;;5029946;28;21611;-82
2022/06/11 10:21:18;;;;;;;3.00;1.38;;;33.00;63.40;;;;;;5045327;28;20147;-82
2022/06/11 10:23:59;;;;;;;3.33;1.50;;;33.20;63.30;;;;;;5043029;28;20116;-82
2022/06/11 10:26:39;;;;;;;7.13;1.63;;;33.20;62.30;;;;;;5038659;28;20025;-82
2022/06/11 10:29:34;;;;;;;3.55;1.08;;;33.20;58.50;;;;;;5052571;28;20036;-83
2022/06/11 10:32:09;;;;;;;4.80;1.10;;;33.10;59.40;;;;;;5034908;28;20274;-84
2022/06/11 10:34:37;;;;;;;2.55;1.10;;;33.20;63.30;;;;;;5024711;28;20036;-82
2022/06/11 10:37:27;;;;;;;3.85;1.48;;;33.20;65.00;;;;;;5045524;28;20185;-83
2022/06/11 10:40:19;;;;;;;4.40;1.45;;;33.20;60.40;;;;;;5037648;28;20043;-83
2022/06/11 10:43:00;;;;;;;3.38;1.30;;;33.30;65.70;;;;;;5043812;28;20064;-83
2022/06/11 10:45:25;;;;;;;3.47;1.20;;;33.50;62.30;;;;;;5028419;28;20094;-82
2022/06/11 10:47:54;;;;;;;3.42;1.48;;;33.60;65.80;;;;;;5038914;28;20176;-84
2022/06/11 10:50:22;;;;;;;3.28;1.40;;;33.80;63.90;;;;;;5023710;28;20044;-83
2022/06/11 10:52:59;;;;;;;2.90;1.25;;;33.90;64.70;;;;;;5046924;28;20436;-82
2022/06/11 10:55:54;;;;;;;3.83;1.30;;;34.20;61.00;;;;;;5047998;28;20400;-84
2022/06/11 10:58:54;;;;;;;4.47;1.23;;;34.50;62.70;;;;;;5038367;28;20129;-83
2022/06/11 11:01:24;;;;;;;3.05;1.40;;;34.50;58.00;;;;;;5032521;28;20040;-83
2022/06/11 11:04:05;;;;;;;3.83;1.60;;;34.50;58.70;;;;;;5022512;28;20135;-83
2022/06/11 11:06:34;;;;;;;2.55;1.45;;;34.50;58.00;;;;;;5046867;28;20492;-83
2022/06/11 11:09:23;;;;;;;3.00;1.40;;;34.40;60.20;;;;;;5028913;28;21537;-83
2022/06/11 11:11:58;;;;;;;2.10;1.00;;;34.30;57.30;;;;;;5033539;28;20045;-83
2022/06/11 11:14:38;;;;;;;2.90;1.48;;;34.30;55.30;;;;;;5034534;28;20425;-83
2022/06/11 11:17:13;;;;;;;3.78;1.52;;;34.30;56.70;;;;;;5037714;28;20033;-84
2022/06/11 11:19:42;;;;;;;3.35;1.50;;;34.30;59.30;;;;;;5015345;28;20138;-83
2022/06/11 11:22:16;;;;;;;2.37;1.37;;;34.40;59.10;;;;;;5064808;28;20109;-83
2022/06/11 11:24:46;;;;;;;5.47;1.60;;;34.40;58.40;;;;;;5034586;28;20255;-83
2022/06/11 11:27:28;;;;;;;3.42;1.42;;;34.50;58.60;;;;;;5052651;28;20048;-82
2022/06/11 11:30:00;;;;;;;3.17;1.58;;;34.40;58.90;;;;;;5030790;28;20052;-84
2022/06/11 11:32:37;;;;;;;3.17;1.38;;;34.30;57.90;;;;;;5040480;28;20114;-84
2022/06/11 11:35:27;;;;;;;3.83;1.60;;;34.30;56.10;;;;;;5026987;28;20028;-82
2022/06/11 11:38:02;;;;;;;3.35;1.20;;;34.10;53.80;;;;;;5040973;28;20128;-82
2022/06/11 11:40:34;;;;;;;3.70;1.25;;;34.00;55.50;;;;;;5032279;28;20244;-82
2022/06/11 11:43:08;;;;;;;2.92;1.40;;;33.90;53.80;;;;;;5045807;28;20131;-83
2022/06/11 11:45:47;;;;;;;3.20;1.30;;;34.00;56.20;;;;;;5035154;28;20041;-83
2022/06/11 11:48:26;;;;;;;3.33;1.10;;;34.00;53.00;;;;;;5042826;28;20156;-83
2022/06/11 11:51:18;;;;;;;2.75;1.25;;;34.00;53.50;;;;;;5026253;28;20037;-83
2022/06/11 11:53:48;;;;;;;2.20;1.65;;;34.10;57.40;;;;;;5047551;28;20233;-83
2022/06/11 11:56:45;;;;;;;2.88;1.63;;;34.30;57.80;;;;;;5038181;28;20044;-84
2022/06/11 11:59:16;;;;;;;4.30;1.65;;;34.40;54.40;;;;;;5037943;28;20071;-82
2022/06/11 12:01:43;;;;;;;3.87;1.40;;;34.50;55.70;;;;;;5020710;28;20987;-82
2022/06/11 12:04:39;;;;;;;2.67;1.33;;;34.50;57.80;;;;;;5047776;28;20029;-82
2022/06/11 12:07:12;;;;;;;3.30;1.33;;;34.70;51.70;;;;;;5026709;28;20866;-81
2022/06/11 12:09:49;;;;;;;2.20;1.25;;;34.70;56.30;;;;;;5050240;28;20381;-83
2022/06/11 12:12:34;;;;;;;2.92;1.60;;;34.80;56.70;;;;;;5030037;28;20480;-78
2022/06/11 12:15:14;;;;;;;2.93;1.40;;;35.00;53.50;;;;;;5022777;28;20036;-78
2022/06/11 12:17:48;;;;;;;2.58;1.20;;;35.10;56.20;;;;;;5025614;28;20039;-79
2022/06/11 12:20:35;;;;;;;2.75;1.27;;;35.30;54.40;;;;;;5053337;28;20037;-79
2022/06/11 12:23:31;;;;;;;3.50;1.38;;;35.50;51.00;;;;;;5014532;28;20162;-78
2022/06/11 12:26:13;;;;;;;2.65;1.48;;;35.50;51.80;;;;;;5039222;28;20040;-79
2022/06/11 12:28:52;;;;;;;2.03;1.07;;;35.60;51.80;;;;;;5040400;28;20493;-79
2022/06/11 12:31:18;;;;;;;2.05;1.10;;;35.50;54.80;;;;;;5036200;28;20040;-77
2022/06/11 12:33:46;;;;;;;2.30;1.40;;;35.70;57.10;;;;;;5026269;28;20041;-77
2022/06/11 12:36:20;;;;;;;3.33;1.30;;;35.90;55.80;;;;;;5047023;28;20021;-77
2022/06/11 12:39:10;;;;;;;1.63;1.10;;;36.00;52.30;;;;;;5022260;28;20045;-78
2022/06/11 12:41:41;;;;;;;2.63;1.40;;;36.10;52.10;;;;;;5035070;28;20061;-77
2022/06/11 12:44:41;;;;;;;2.50;1.30;;;36.00;54.90;;;;;;5053469;28;20561;-79
2022/06/11 12:47:22;;;;;;;3.53;1.17;;;35.90;48.50;;;;;;5041567;28;20055;-77
2022/06/11 12:50:10;;;;;;;2.88;1.30;;;35.70;53.60;;;;;;5035044;28;20581;-78
2022/06/11 12:53:05;;;;;;;2.23;1.30;;;35.60;50.30;;;;;;5023396;28;20044;-78
2022/06/11 12:55:40;;;;;;;2.78;1.33;;;35.40;52.00;;;;;;5058488;28;20406;-83
2022/06/11 12:58:16;;;;;;;2.83;1.27;;;35.20;49.10;;;;;;5050493;28;20445;-78
2022/06/11 13:00:50;;;;;;;3.13;1.20;;;34.90;49.60;;;;;;5039782;28;20037;-77
2022/06/11 13:03:45;;;;;;;2.65;1.15;;;34.70;49.30;;;;;;5039559;28;20702;-77
2022/06/11 13:06:39;;;;;;;1.70;0.90;;;34.50;50.00;;;;;;5047051;28;20120;-78
2022/06/11 13:09:36;;;;;;;2.00;0.95;;;34.30;49.60;;;;;;5029286;28;20472;-79
2022/06/11 13:12:21;;;;;;;3.03;1.20;;;34.10;47.80;;;;;;5035493;28;20480;-78
2022/06/11 13:15:02;;;;;;;2.25;1.08;;;34.00;50.50;;;;;;5048845;28;20029;-78
2022/06/11 13:17:59;;;;;;;2.75;1.17;;;34.00;50.30;;;;;;5034560;28;20029;-76
2022/06/11 13:21:09;;;;;;;2.87;1.07;;;33.90;50.70;;;;;;5024490;28;20067;-77